createdAt,value
2019-03-22T00:01:11.250Z,67.28
2019-03-22T00:03:42.534Z,67.47
2019-03-22T00:06:13.933Z,67.87
2019-03-22T00:08:45.387Z,67.78
2019-03-22T00:11:16.737Z,67.55
2019-03-22T00:13:48.145Z,68.07
2019-03-22T00:16:19.500Z,67.94
2019-03-22T00:18:50.822Z,67.43
2019-03-22T00:21:22.189Z,68.37
2019-03-22T00:23:53.562Z,68.21
2019-03-22T00:26:25.023Z,68.33
2019-03-22T00:28:56.410Z,68.92
2019-03-22T00:31:27.740Z,68.96
2019-03-22T00:33:59.107Z,68.82
2019-03-22T00:36:30.428Z,69.04
2019-03-22T00:39:01.830Z,68.71
2019-03-22T00:41:34.656Z,69.35
2019-03-22T00:44:05.935Z,69.38
2019-03-22T00:46:37.255Z,69.28
2019-03-22T00:49:08.652Z,69.28
2019-03-22T00:51:41.084Z,69.20
2019-03-22T00:54:12.374Z,69.01
2019-03-22T00:56:43.631Z,68.91
2019-03-22T00:59:14.979Z,69.17
2019-03-22T01:01:46.270Z,69.04
2019-03-22T01:04:17.669Z,69.72
2019-03-22T01:06:49.001Z,70.08
2019-03-22T01:09:20.259Z,70.32
2019-03-22T01:11:51.594Z,69.92
2019-03-22T01:14:23.078Z,69.69
2019-03-22T01:16:54.468Z,69.67
2019-03-22T01:19:25.684Z,69.93
2019-03-22T01:21:57.019Z,69.83
2019-03-22T01:24:28.259Z,70.58
2019-03-22T01:26:59.580Z,69.92
2019-03-22T01:29:32.135Z,69.93
2019-03-22T01:32:03.382Z,69.78
2019-03-22T01:34:34.819Z,70.20
2019-03-22T01:37:07.421Z,69.49
2019-03-22T01:39:38.644Z,69.46
2019-03-22T01:42:09.964Z,69.87
2019-03-22T01:44:41.215Z,70.57
2019-03-22T01:47:12.470Z,70.12
2019-03-22T01:49:43.867Z,70.21
2019-03-22T01:52:15.264Z,69.65
2019-03-22T01:54:46.526Z,70.79
2019-03-22T01:57:17.794Z,70.25
2019-03-22T01:59:49.244Z,70.59
2019-03-22T02:02:20.632Z,70.66
2019-03-22T02:04:53.090Z,70.63
2019-03-22T02:07:24.335Z,70.40
2019-03-22T02:09:55.828Z,70.69
2019-03-22T02:12:27.127Z,70.91
2019-03-22T02:14:58.468Z,70.84
2019-03-22T02:17:29.837Z,70.84
2019-03-22T02:20:02.193Z,70.34
2019-03-22T02:22:33.461Z,70.55
2019-03-22T02:25:06.191Z,71.03
2019-03-22T02:27:37.673Z,70.95
2019-03-22T02:30:11.320Z,71.29
2019-03-22T02:32:42.723Z,71.21
2019-03-22T02:35:27.565Z,71.58
2019-03-22T02:37:47.141Z,71.44
2019-03-22T02:40:18.491Z,71.63
2019-03-22T02:42:49.812Z,72.18
2019-03-22T02:45:21.145Z,72.15
2019-03-22T02:47:54.024Z,72.80
2019-03-22T02:50:25.293Z,72.44
2019-03-22T02:52:56.650Z,72.18
2019-03-22T02:55:28.088Z,72.16
2019-03-22T02:57:59.447Z,72.11
2019-03-22T03:00:30.708Z,72.29
2019-03-22T03:03:02.048Z,71.85
2019-03-22T03:05:33.363Z,72.13
2019-03-22T03:08:04.714Z,71.64
2019-03-22T03:10:36.028Z,71.75
2019-03-22T03:13:07.453Z,71.25
2019-03-22T03:15:38.745Z,71.86
2019-03-22T03:18:10.066Z,71.87
2019-03-22T03:20:41.529Z,71.85
2019-03-22T03:23:12.850Z,72.25
2019-03-22T03:25:44.204Z,72.24
2019-03-22T03:28:15.534Z,72.16
2019-03-22T03:30:46.807Z,72.51
2019-03-22T03:33:18.056Z,72.38
2019-03-22T03:35:49.338Z,71.84
2019-03-22T03:38:20.621Z,72.65
2019-03-22T03:40:52.149Z,72.88
2019-03-22T03:43:24.494Z,72.57
2019-03-22T03:45:55.810Z,72.41
2019-03-22T03:48:27.148Z,72.65
2019-03-22T03:50:58.485Z,72.83
2019-03-22T03:53:29.930Z,72.87
2019-03-22T03:56:01.229Z,72.91
2019-03-22T03:58:32.525Z,72.25
2019-03-22T04:01:03.770Z,72.53
2019-03-22T04:03:35.359Z,72.78
2019-03-22T04:06:06.671Z,73.61
2019-03-22T04:08:38.096Z,73.38
2019-03-22T04:11:09.442Z,73.56
2019-03-22T04:13:40.817Z,73.35
2019-03-22T04:16:12.089Z,72.53
2019-03-22T04:18:43.365Z,72.47
2019-03-22T04:21:14.583Z,72.86
2019-03-22T04:23:45.987Z,72.48
2019-03-22T04:26:17.292Z,72.91
2019-03-22T04:28:48.629Z,72.52
2019-03-22T04:31:19.993Z,71.86
2019-03-22T04:33:51.422Z,72.30
2019-03-22T04:36:22.881Z,72.21
2019-03-22T04:38:54.255Z,72.13
2019-03-22T04:41:25.655Z,72.22
2019-03-22T04:43:57.063Z,72.21
2019-03-22T04:46:28.403Z,71.63
2019-03-22T04:48:59.648Z,71.92
2019-03-22T04:51:30.935Z,72.61
2019-03-22T04:54:02.318Z,71.06
2019-03-22T04:56:33.723Z,71.62
2019-03-22T04:59:05.784Z,71.08
2019-03-22T05:01:37.238Z,70.79
2019-03-22T05:04:08.577Z,70.40
2019-03-22T05:06:41.568Z,69.98
2019-03-22T05:09:12.955Z,69.89
2019-03-22T05:11:44.328Z,70.35
2019-03-22T05:14:15.982Z,70.33
2019-03-22T05:16:47.454Z,69.94
2019-03-22T05:19:18.952Z,70.22
2019-03-22T05:21:50.474Z,70.06
2019-03-22T05:24:22.108Z,69.59
2019-03-22T05:26:54.344Z,69.86
2019-03-22T05:29:30.832Z,69.27
2019-03-22T05:32:02.335Z,69.86
2019-03-22T05:34:33.713Z,69.41
2019-03-22T05:37:05.179Z,69.02
2019-03-22T05:39:36.516Z,69.28
2019-03-22T05:42:07.783Z,69.27
2019-03-22T05:44:39.322Z,69.37
2019-03-22T05:47:11.637Z,69.34
2019-03-22T05:49:42.961Z,69.55
2019-03-22T05:52:14.270Z,69.18
2019-03-22T05:54:45.639Z,69.37
2019-03-22T05:57:17.031Z,69.72
2019-03-22T05:59:48.365Z,68.99
2019-03-22T06:02:19.682Z,68.64
2019-03-22T06:04:51.221Z,68.62
2019-03-22T06:07:22.787Z,68.06
2019-03-22T06:09:54.178Z,67.92
2019-03-22T06:12:25.467Z,67.39
2019-03-22T06:14:56.778Z,67.21
2019-03-22T06:17:28.241Z,67.28
2019-03-22T06:20:00.523Z,65.82
2019-03-22T06:22:32.118Z,65.78
2019-03-22T06:25:03.470Z,66.52
2019-03-22T06:27:34.745Z,65.79
2019-03-22T06:30:10.329Z,64.90
2019-03-22T06:32:41.708Z,63.68
2019-03-22T06:35:13.003Z,63.37
2019-03-22T06:37:44.343Z,61.88
2019-03-22T06:40:15.700Z,61.58
2019-03-22T06:42:48.190Z,61.41
2019-03-22T06:45:19.488Z,61.61
2019-03-22T06:47:50.887Z,61.40
2019-03-22T06:50:25.289Z,60.79
2019-03-22T06:52:56.630Z,60.97
2019-03-22T06:55:27.903Z,60.24
2019-03-22T06:57:59.298Z,59.11
2019-03-22T07:00:30.553Z,58.33
2019-03-22T07:03:01.936Z,58.84
2019-03-22T07:05:33.343Z,58.69
2019-03-22T07:08:04.759Z,58.43
2019-03-22T07:10:36.556Z,57.53
2019-03-22T07:13:07.949Z,57.62
2019-03-22T07:15:39.515Z,56.35
2019-03-22T07:18:12.803Z,55.48
2019-03-22T07:20:44.060Z,56.02
2019-03-22T07:23:15.453Z,55.10
2019-03-22T07:25:46.791Z,55.23
2019-03-22T07:28:18.177Z,56.05
2019-03-22T07:30:49.576Z,55.73
2019-03-22T07:33:20.958Z,55.60
2019-03-22T07:35:52.518Z,56.21
2019-03-22T07:38:23.940Z,56.28
2019-03-22T07:40:55.193Z,56.71
2019-03-22T07:43:26.581Z,56.08
2019-03-22T07:45:57.991Z,57.18
2019-03-22T07:48:29.467Z,56.65
2019-03-22T07:51:00.833Z,55.59
2019-03-22T07:53:32.141Z,53.97
2019-03-22T07:56:03.531Z,53.78
2019-03-22T07:58:34.858Z,53.28
2019-03-22T08:01:06.855Z,53.66
2019-03-22T08:03:37.488Z,53.44
2019-03-22T08:06:08.662Z,52.88
2019-03-22T08:08:41.610Z,52.73
2019-03-22T08:11:12.933Z,52.42
2019-03-22T08:13:44.371Z,51.13
2019-03-22T08:16:15.760Z,49.88
2019-03-22T08:18:47.134Z,49.12
2019-03-22T08:21:18.639Z,48.85
2019-03-22T08:23:50.038Z,48.33
2019-03-22T08:26:21.493Z,47.39
2019-03-22T08:28:52.929Z,47.39
2019-03-22T08:31:25.934Z,47.58
2019-03-22T08:33:57.461Z,47.03
2019-03-22T08:36:29.024Z,47.12
2019-03-22T08:39:00.465Z,47.53
2019-03-22T08:41:33.387Z,47.35
2019-03-22T08:44:04.683Z,47.13
2019-03-22T08:46:37.289Z,46.35
2019-03-22T08:49:09.628Z,46.00
2019-03-22T08:51:41.239Z,45.25
2019-03-22T08:54:12.669Z,44.69
2019-03-22T08:56:44.050Z,45.12
2019-03-22T08:59:15.474Z,44.74
2019-03-22T09:01:46.933Z,43.97
2019-03-22T09:04:18.357Z,42.65
2019-03-22T09:06:49.924Z,42.69
2019-03-22T09:09:21.320Z,41.20
2019-03-22T09:11:52.677Z,40.76
2019-03-22T09:14:24.085Z,40.59
2019-03-22T09:16:55.493Z,40.08
2019-03-22T09:19:26.996Z,40.34
2019-03-22T09:21:59.592Z,41.27
2019-03-22T09:24:39.139Z,42.65
2019-03-22T09:27:04.061Z,42.85
2019-03-22T09:29:35.416Z,44.23
2019-03-22T09:32:06.853Z,44.76
2019-03-22T09:34:38.298Z,45.14
2019-03-22T09:37:09.740Z,45.51
2019-03-22T09:39:41.100Z,45.48
2019-03-22T09:42:12.517Z,46.00
2019-03-22T09:44:45.119Z,45.78
2019-03-22T09:47:17.019Z,46.43
2019-03-22T09:49:51.128Z,46.47
2019-03-22T09:52:21.518Z,46.79
2019-03-22T09:54:54.063Z,47.14
2019-03-22T09:57:25.512Z,46.73
2019-03-22T09:59:56.841Z,46.21
2019-03-22T10:02:28.076Z,45.34
2019-03-22T10:04:59.478Z,46.04
2019-03-22T10:07:32.028Z,45.92
2019-03-22T10:10:04.119Z,46.52
2019-03-22T10:12:35.497Z,47.12
2019-03-22T10:15:07.088Z,47.64
2019-03-22T10:17:38.394Z,47.47
2019-03-22T10:20:09.838Z,47.50
2019-03-22T10:22:41.207Z,47.62
2019-03-22T10:25:12.690Z,48.45
2019-03-22T10:27:44.031Z,48.38
2019-03-22T10:30:16.972Z,48.76
2019-03-22T10:32:48.341Z,48.59
2019-03-22T10:35:26.019Z,49.18
2019-03-22T10:38:00.324Z,49.36
2019-03-22T10:40:25.994Z,49.31
2019-03-22T10:42:57.310Z,49.27
2019-03-22T10:45:28.726Z,49.53
2019-03-22T10:48:00.093Z,49.97
2019-03-22T10:50:31.476Z,49.83
2019-03-22T10:53:02.770Z,49.78
2019-03-22T10:55:35.660Z,50.25
2019-03-22T10:58:20.215Z,50.21
2019-03-22T11:00:40.332Z,50.34
2019-03-22T11:03:11.706Z,50.00
2019-03-22T11:05:43.219Z,49.53
2019-03-22T11:08:14.656Z,50.00
2019-03-22T11:10:46.026Z,50.08
2019-03-22T11:13:18.433Z,49.82
2019-03-22T11:15:49.930Z,49.62
2019-03-22T11:18:21.358Z,49.76
2019-03-22T11:20:52.706Z,50.08
2019-03-22T11:23:24.098Z,50.13
2019-03-22T11:26:03.847Z,52.15
2019-03-22T11:28:28.532Z,54.62
2019-03-22T11:31:04.606Z,54.71
2019-03-22T11:33:32.984Z,54.07
2019-03-22T11:36:04.361Z,53.33
2019-03-22T11:38:35.774Z,53.87
2019-03-22T11:41:07.177Z,53.74
2019-03-22T11:43:38.620Z,53.87
2019-03-22T11:46:09.956Z,55.04
2019-03-22T11:48:41.427Z,55.21
2019-03-22T11:51:12.849Z,55.85
2019-03-22T11:53:44.223Z,56.13
2019-03-22T11:56:15.544Z,55.52
2019-03-22T11:58:47.041Z,55.26
2019-03-22T12:01:20.381Z,55.43
2019-03-22T12:03:51.558Z,55.26
2019-03-22T12:06:22.796Z,56.13
2019-03-22T12:08:54.032Z,55.85
2019-03-22T12:11:25.348Z,56.45
2019-03-22T12:13:56.684Z,56.34
2019-03-22T12:16:28.016Z,58.03
2019-03-22T12:19:00.519Z,58.14
2019-03-22T12:21:31.810Z,58.10
2019-03-22T12:24:03.244Z,58.88
2019-03-22T12:26:34.684Z,58.58
2019-03-22T12:29:06.080Z,58.60
2019-03-22T12:31:37.420Z,58.69
2019-03-22T12:34:08.810Z,57.84
2019-03-22T12:36:40.187Z,58.02
2019-03-22T12:39:11.429Z,58.86
2019-03-22T12:41:42.855Z,59.16
2019-03-22T12:44:14.251Z,59.14
2019-03-22T12:46:45.569Z,58.87
2019-03-22T12:49:17.014Z,59.30
2019-03-22T12:51:48.384Z,60.14
2019-03-22T12:54:19.804Z,61.03
2019-03-22T12:56:51.307Z,62.14
2019-03-22T12:59:22.572Z,62.95
2019-03-22T13:01:53.979Z,62.84
2019-03-22T13:04:25.336Z,62.21
2019-03-22T13:06:56.716Z,61.37
2019-03-22T13:09:28.060Z,61.14
2019-03-22T13:11:59.369Z,60.58
2019-03-22T13:14:30.737Z,60.67
2019-03-22T13:17:02.091Z,61.01
2019-03-22T13:19:34.851Z,60.46
2019-03-22T13:22:06.300Z,60.88
2019-03-22T13:24:37.690Z,60.83
2019-03-22T13:27:09.040Z,60.80
2019-03-22T13:29:40.399Z,61.37
2019-03-22T13:32:11.852Z,61.26
2019-03-22T13:34:43.206Z,61.87
2019-03-22T13:37:14.651Z,63.46
2019-03-22T13:39:46.188Z,64.99
2019-03-22T13:42:17.596Z,67.04
2019-03-22T13:44:48.957Z,68.45
2019-03-22T13:47:20.338Z,70.41
2019-03-22T13:49:51.878Z,71.79
2019-03-22T13:52:24.860Z,73.02
2019-03-22T13:54:56.229Z,76.64
2019-03-22T13:57:27.522Z,77.69
2019-03-22T13:59:58.858Z,79.31
2019-03-22T14:02:30.248Z,80.36
2019-03-22T14:05:01.664Z,81.46
2019-03-22T14:07:34.172Z,82.49
2019-03-22T14:10:07.559Z,82.22
2019-03-22T14:12:38.990Z,82.04
2019-03-22T14:15:10.386Z,82.12
2019-03-22T14:17:41.649Z,82.51
2019-03-22T14:20:13.449Z,81.98
2019-03-22T14:22:44.775Z,81.48
2019-03-22T14:25:16.046Z,80.73
2019-03-22T14:27:47.484Z,80.59
2019-03-22T14:30:18.828Z,80.47
2019-03-22T14:32:50.150Z,80.52
2019-03-22T14:35:23.901Z,80.36
2019-03-22T14:37:55.250Z,80.81
2019-03-22T14:40:26.570Z,80.38
2019-03-22T14:42:57.915Z,80.10
2019-03-22T14:45:29.291Z,79.79
2019-03-22T14:48:00.660Z,80.21
2019-03-22T14:50:31.979Z,79.92
2019-03-22T14:53:03.519Z,79.25
2019-03-22T14:55:35.092Z,79.44
2019-03-22T14:58:06.407Z,79.56
2019-03-22T15:00:37.715Z,80.13
2019-03-22T15:03:24.566Z,79.18
2019-03-22T15:05:56.331Z,79.54
2019-03-22T15:08:28.891Z,80.08
2019-03-22T15:11:00.271Z,79.70
2019-03-22T15:13:33.172Z,80.00
2019-03-22T15:16:06.197Z,80.55
2019-03-22T15:18:45.173Z,80.04
2019-03-22T15:21:21.111Z,80.52
2019-03-22T15:24:03.119Z,79.76
2019-03-22T15:26:31.129Z,79.35
2019-03-22T15:29:13.153Z,79.34
2019-03-22T15:32:02.289Z,79.32
2019-03-22T15:34:38.259Z,78.75
2019-03-22T15:37:11.109Z,79.17
2019-03-22T15:39:55.750Z,78.51
2019-03-22T15:42:27.154Z,78.83
2019-03-22T15:44:58.589Z,78.25
2019-03-22T15:47:30.103Z,78.20
2019-03-22T15:50:02.454Z,78.37
2019-03-22T15:52:33.815Z,77.65
2019-03-22T15:55:08.403Z,77.62
2019-03-22T15:57:39.714Z,77.52
2019-03-22T16:00:16.651Z,77.63
2019-03-22T16:02:47.917Z,77.77
2019-03-22T16:05:19.315Z,76.61
2019-03-22T16:07:50.735Z,75.98
2019-03-22T16:10:22.141Z,76.38
2019-03-22T16:12:54.083Z,78.34
2019-03-22T16:15:25.476Z,75.40
2019-03-22T16:17:56.705Z,80.58
2019-03-22T16:20:27.989Z,80.58
2019-03-22T16:22:59.461Z,81.57
2019-03-22T16:25:30.700Z,81.66
2019-03-22T16:28:02.128Z,82.47
2019-03-22T16:30:33.405Z,82.83
2019-03-22T16:33:04.568Z,82.26
2019-03-22T16:35:35.850Z,82.22
2019-03-22T16:38:07.135Z,82.36
2019-03-22T16:40:38.502Z,83.02
2019-03-22T16:43:09.736Z,83.19
2019-03-22T16:45:41.959Z,82.77
2019-03-22T16:48:13.248Z,81.32
2019-03-22T16:50:44.477Z,81.93
2019-03-22T16:53:15.911Z,82.95
2019-03-22T16:55:47.235Z,83.00
2019-03-22T16:58:18.656Z,82.14
2019-03-22T17:00:50.191Z,82.17
2019-03-22T17:03:24.115Z,82.89
2019-03-22T17:05:55.547Z,82.57
2019-03-22T17:08:26.892Z,82.89
2019-03-22T17:10:58.160Z,83.07
2019-03-22T17:13:29.368Z,82.99
2019-03-22T17:16:02.045Z,83.21
2019-03-22T17:18:33.514Z,82.21
2019-03-22T17:21:04.767Z,82.33
2019-03-22T17:23:35.983Z,81.96
2019-03-22T17:26:07.370Z,81.88
2019-03-22T17:28:38.606Z,81.98
2019-03-22T17:31:09.893Z,81.79
2019-03-22T17:33:41.095Z,81.62
2019-03-22T17:36:12.390Z,81.58
2019-03-22T17:38:43.678Z,81.76
2019-03-22T17:41:14.888Z,81.45
2019-03-22T17:43:46.184Z,81.04
2019-03-22T17:46:17.310Z,80.77
2019-03-22T17:48:48.541Z,81.33
2019-03-22T17:51:19.870Z,81.33
2019-03-22T17:53:51.080Z,81.82
2019-03-22T17:56:22.263Z,82.30
2019-03-22T17:58:53.505Z,82.51
2019-03-22T18:01:24.664Z,82.51
2019-03-22T18:03:55.864Z,82.36
2019-03-22T18:06:27.058Z,82.22
2019-03-22T18:08:58.281Z,81.71
2019-03-22T18:11:29.599Z,81.45
2019-03-22T18:14:00.832Z,82.07
2019-03-22T18:16:32.118Z,82.03
2019-03-22T18:19:04.644Z,81.92
2019-03-22T18:21:35.790Z,81.85
2019-03-22T18:24:07.035Z,81.68
2019-03-22T18:26:38.251Z,81.72
2019-03-22T18:29:09.464Z,81.45
2019-03-22T18:31:40.708Z,81.39
2019-03-22T18:34:12.001Z,80.86
2019-03-22T18:36:43.266Z,80.66
2019-03-22T18:39:14.401Z,81.04
2019-03-22T18:41:45.532Z,80.48
2019-03-22T18:44:16.839Z,80.21
2019-03-22T18:46:49.303Z,80.25
2019-03-22T18:49:20.616Z,78.89
2019-03-22T18:51:51.897Z,78.46
2019-03-22T18:54:23.035Z,78.42
2019-03-22T18:56:54.274Z,78.93
2019-03-22T18:59:25.557Z,79.11
2019-03-22T19:01:56.861Z,79.19
2019-03-22T19:04:28.025Z,79.17
2019-03-22T19:06:59.395Z,78.63
2019-03-22T19:09:30.547Z,79.01
2019-03-22T19:12:01.846Z,79.36
2019-03-22T19:14:33.087Z,79.95
2019-03-22T19:17:04.378Z,79.86
2019-03-22T19:19:36.799Z,79.34
2019-03-22T19:22:07.934Z,78.99
2019-03-22T19:24:39.333Z,78.60
2019-03-22T19:27:10.685Z,78.72
2019-03-22T19:29:41.941Z,79.29
2019-03-22T19:32:13.928Z,79.30
2019-03-22T19:34:53.921Z,78.49
2019-03-22T19:37:17.323Z,79.07
2019-03-22T19:39:48.537Z,78.54
2019-03-22T19:42:19.820Z,78.88
2019-03-22T19:44:51.142Z,79.45
2019-03-22T19:47:22.399Z,78.29
2019-03-22T19:49:53.619Z,78.16
2019-03-22T19:52:26.136Z,78.11
2019-03-22T19:54:57.459Z,78.15
2019-03-22T19:57:28.791Z,78.31
2019-03-22T20:00:00.019Z,78.82
2019-03-22T20:02:31.281Z,78.01
2019-03-22T20:05:04.938Z,77.40
2019-03-22T20:07:35.492Z,78.00
2019-03-22T20:10:09.838Z,77.27
2019-03-22T20:12:41.097Z,77.32
2019-03-22T20:15:12.349Z,78.09
2019-03-22T20:17:43.684Z,77.40
2019-03-22T20:20:15.960Z,77.41
2019-03-22T20:22:47.306Z,78.09
2019-03-22T20:25:18.650Z,77.64
2019-03-22T20:27:49.894Z,77.76
2019-03-22T20:30:21.462Z,77.88
2019-03-22T20:32:52.825Z,77.90
2019-03-22T20:35:24.196Z,76.79
2019-03-22T20:37:55.582Z,76.18
2019-03-22T20:40:26.965Z,75.66
2019-03-22T20:42:58.416Z,76.01
2019-03-22T20:45:29.733Z,75.67
2019-03-22T20:48:01.091Z,75.64
2019-03-22T20:50:36.133Z,76.01
2019-03-22T20:53:05.526Z,75.79
2019-03-22T20:55:36.738Z,75.39
2019-03-22T20:58:08.070Z,75.27
2019-03-22T21:00:39.285Z,74.96
2019-03-22T21:03:10.644Z,75.54
2019-03-22T21:05:44.679Z,75.04
2019-03-22T21:08:15.942Z,75.19
2019-03-22T21:10:47.349Z,75.00
2019-03-22T21:13:18.811Z,75.13
2019-03-22T21:15:50.135Z,75.97
2019-03-22T21:18:21.472Z,75.95
2019-03-22T21:20:52.896Z,75.93
2019-03-22T21:23:24.228Z,75.67
2019-03-22T21:25:55.417Z,75.72
2019-03-22T21:28:26.687Z,74.80
2019-03-22T21:30:57.985Z,74.94
2019-03-22T21:33:29.300Z,74.04
2019-03-22T21:36:01.500Z,72.89
2019-03-22T21:38:32.886Z,73.51
2019-03-22T21:41:04.293Z,74.36
2019-03-22T21:43:35.546Z,73.45
2019-03-22T21:46:06.807Z,73.65
2019-03-22T21:48:38.065Z,74.26
2019-03-22T21:51:09.286Z,74.77
2019-03-22T21:53:40.507Z,75.31
2019-03-22T21:56:11.820Z,75.65
2019-03-22T21:58:43.065Z,76.37
2019-03-22T22:01:15.327Z,76.59
2019-03-22T22:03:46.587Z,76.82
2019-03-22T22:06:17.873Z,76.52
2019-03-22T22:08:49.243Z,77.24
2019-03-22T22:11:20.392Z,77.39
2019-03-22T22:13:51.685Z,77.66
2019-03-22T22:16:22.894Z,77.37
2019-03-22T22:18:54.151Z,77.09
2019-03-22T22:21:25.233Z,77.42
2019-03-22T22:23:56.694Z,77.94
2019-03-22T22:26:27.870Z,77.91
2019-03-22T22:28:59.145Z,78.50
2019-03-22T22:31:31.377Z,78.67
2019-03-22T22:34:02.659Z,78.83
2019-03-22T22:36:33.869Z,78.83
2019-03-22T22:39:06.232Z,78.97
2019-03-22T22:41:39.046Z,77.82
2019-03-22T22:44:10.278Z,77.64
2019-03-22T22:46:41.478Z,77.43
2019-03-22T22:49:12.689Z,77.35
2019-03-22T22:51:44.149Z,76.78
2019-03-22T22:54:15.360Z,77.56
2019-03-22T22:56:46.582Z,76.73
2019-03-22T22:59:17.940Z,76.08
2019-03-22T23:01:49.269Z,74.65
2019-03-22T23:04:20.568Z,74.33
2019-03-22T23:06:51.827Z,73.93
2019-03-22T23:09:23.051Z,72.92
2019-03-22T23:11:54.278Z,72.80
2019-03-22T23:14:27.523Z,72.70
2019-03-22T23:16:58.799Z,71.18
2019-03-22T23:19:29.923Z,71.18
2019-03-22T23:22:01.181Z,71.12
2019-03-22T23:24:32.503Z,70.23
2019-03-22T23:27:03.812Z,69.45
2019-03-22T23:29:35.048Z,68.65
2019-03-22T23:32:06.429Z,68.12
2019-03-22T23:34:37.629Z,67.94
2019-03-22T23:37:08.717Z,67.54
2019-03-22T23:39:40.002Z,67.39
2019-03-22T23:42:11.254Z,65.69
2019-03-22T23:44:42.455Z,65.57
2019-03-22T23:47:13.798Z,66.08
2019-03-22T23:49:45.085Z,65.54
2019-03-22T23:52:16.394Z,63.89
2019-03-22T23:54:47.666Z,64.13
2019-03-22T23:57:18.922Z,66.02
2019-03-22T23:59:50.117Z,62.58
